Tropical Cyclones
[Index]
Main Index Home Page Stock Weather Photos Extreme Storms Discussion Storm News and Storm Chasing Reports Tropical Cyclones / Hurricanes / Typhoons Weather Data and Links Wild Fires / Bushfires Weather Observation Techniques Weather Picture Catalogue Tornado Pictures and Reports Stock Video Footage and DVDs for sale
Season 1991-1992 Tropical Cyclone ALEXANDRA Track Map
Season 1991-1992 Summaries: [BoM-AU] [JTWC-AU] [JTWC-SIO] [JTWC-SPAC] [JTWC-SH]
<<- Previous TC | JTWC 1991-1992 Season | Next TC ->>

click for intensity scale information  Lat/long Grid: Show Hide

 Date Labels: Show Hide

Joint Typhoon Warning Centre Cyclone Data

Name: ALEXANDRA

17 Dec 1991 12:00 UTC to 26 Dec 1991 06:00 UTC

    date/time    lat    long     hPa   cat  kts
1991-12-17 12    7.5    66.0                  20          
1991-12-17 18    7.9    66.9                  20          
1991-12-18 00    8.3    67.8                  20          
1991-12-18 06    8.5    68.8                  20          
1991-12-18 12    8.7    69.8                  25          
1991-12-18 18    8.8    70.8                  25          
1991-12-19 00    8.9    71.8                  25          
1991-12-19 06    9.0    72.8                  25          
1991-12-19 12    9.3    73.7                  30          
1991-12-19 18    9.9    74.5                  30          
1991-12-20 00   10.7    75.1                  35          
1991-12-20 06   11.5    75.6            1     40          
1991-12-20 12   12.4    76.1            1     50          
1991-12-20 18   13.4    76.4            2     60          
1991-12-21 00   14.3    76.7            3     75          
1991-12-21 06   15.1    77.0            3     85          
1991-12-21 12   15.8    77.3            3     90          
1991-12-21 18   16.3    77.7            3     95          
1991-12-22 00   16.6    78.2            4    100          
1991-12-22 06   16.7    78.8            4    100          
1991-12-22 12   16.8    79.2            4    105          
1991-12-22 18   16.8    79.4            4    100          
1991-12-23 00   16.9    79.6            3     95          
1991-12-23 06   17.1    79.6            3     85          
1991-12-23 12   17.3    79.3            3     80          
1991-12-23 18   17.4    78.8            3     75          
1991-12-24 00   17.5    78.1            2     65          
1991-12-24 06   17.6    77.3            2     60          
1991-12-24 12   17.6    76.4            1     50          
1991-12-24 18   17.6    75.5            1     45          
1991-12-25 00   17.7    74.7            1     40          
1991-12-25 06   17.9    74.0                  35          
1991-12-25 12   18.2    73.3                  30          
1991-12-25 18   18.5    72.6                  30          
1991-12-26 00   18.8    71.9                  25          
1991-12-26 06   18.9    71.2                  25          
Winds are 1-min average.

Tropical cyclone tracks developed by Michael Bath using data from the Joint Typhoon Warning Centre Best Tracks and Google Maps.


[Australian Severe Weather index] [Copyright Notice] [Email Contacts] [Search This Site] [Privacy Policy]
Document: tropical_cyclone_alexandra.htm Updated: 18 September 2016